Time;durP1;ratioP1;P1;durP2;ratioP2;P2;SDS_P1;SDS_P2;PMS_P1;PMS_P2;Temp;Humidity;BMP_temperature;BMP_pressure;BME280_temperature;BME280_humidity;BME280_pressure;Samples;Min_cycle;Max_cycle;Signal;HPM_P1;HPM_P2
2021/05/09 00:01:38;;;;;;;5.07;4.10;;;;;;;-143.98;100.00;68091.63;5041863;28;20060;-89
2021/05/09 00:04:06;;;;;;;4.68;4.18;;;;;;;-143.98;100.00;68091.63;5040578;28;20054;-88
2021/05/09 00:06:33;;;;;;;6.75;4.18;;;;;;;-143.98;100.00;68091.63;5041216;28;20061;-88
2021/05/09 00:09:03;;;;;;;5.25;3.97;;;;;;;-143.98;100.00;68091.63;5025002;28;20345;-88
2021/05/09 00:11:29;;;;;;;8.45;4.25;;;;;;;-143.98;100.00;68091.63;5041028;28;20041;-88
2021/05/09 00:13:55;;;;;;;5.85;3.80;;;;;;;-143.98;100.00;68091.63;5042390;28;20281;-86
2021/05/09 00:16:22;;;;;;;4.18;3.35;;;;;;;-143.98;100.00;68091.63;5045291;28;20069;-87
2021/05/09 00:18:48;;;;;;;10.50;4.68;;;;;;;-143.98;100.00;68091.63;5045820;28;20155;-88
2021/05/09 00:21:18;;;;;;;5.90;3.95;;;;;;;-143.98;100.00;68091.63;5042344;28;20053;-86
2021/05/09 00:23:44;;;;;;;9.68;4.40;;;;;;;-143.98;100.00;68091.63;5043365;28;20448;-88
2021/05/09 00:26:11;;;;;;;4.68;3.20;;;;;;;-143.98;100.00;68091.63;5043302;28;20383;-87
2021/05/09 00:28:37;;;;;;;5.30;3.60;;;;;;;-143.98;100.00;68091.63;5042266;28;20054;-87
2021/05/09 00:31:03;;;;;;;5.10;3.58;;;;;;;-143.98;100.00;68091.63;5042460;28;20079;-87
2021/05/09 00:33:30;;;;;;;5.68;3.58;;;;;;;-143.98;100.00;68091.63;5043837;28;20049;-88
2021/05/09 00:35:56;;;;;;;4.22;3.38;;;;;;;-143.98;100.00;68091.63;5042437;28;20321;-88
2021/05/09 00:38:25;;;;;;;9.95;3.70;;;;;;;-143.98;100.00;68091.63;5041689;28;20053;-88
2021/05/09 00:40:54;;;;;;;7.50;3.50;;;;;;;-143.98;100.00;68091.63;5042031;28;20064;-87
2021/05/09 00:43:21;;;;;;;6.40;3.85;;;;;;;-143.98;100.00;68091.63;5056973;28;20156;-87
2021/05/09 00:45:48;;;;;;;6.00;4.03;;;;;;;-143.98;100.00;68091.63;5042109;28;20115;-87
2021/05/09 00:48:20;;;;;;;7.50;3.35;;;;;;;-143.98;100.00;68091.63;5041764;28;20064;-87
2021/05/09 00:50:46;;;;;;;6.15;3.28;;;;;;;-143.98;100.00;68091.63;5057154;28;20049;-88
2021/05/09 00:53:23;;;;;;;5.63;3.00;;;;;;;-143.98;100.00;68091.63;5039575;28;20054;-87
2021/05/09 00:55:52;;;;;;;3.85;3.30;;;;;;;-143.98;100.00;68091.63;5023065;28;20100;-87
2021/05/09 00:58:20;;;;;;;3.67;3.28;;;;;;;-143.98;100.00;68091.63;5055425;28;20079;-87
2021/05/09 01:00:49;;;;;;;3.55;2.80;;;;;;;-143.98;100.00;68091.63;5039992;28;20444;-87
2021/05/09 01:03:19;;;;;;;6.30;3.17;;;;;;;-143.98;100.00;68091.63;5041350;28;20041;-87
2021/05/09 01:05:49;;;;;;;3.90;2.97;;;;;;;-143.98;100.00;68091.63;5041635;28;20068;-87
2021/05/09 01:08:15;;;;;;;5.68;3.20;;;;;;;-143.98;100.00;68091.63;5040378;28;20059;-87
2021/05/09 01:10:42;;;;;;;4.72;3.30;;;;;;;-143.98;100.00;68091.63;5051609;28;20116;-87
2021/05/09 01:13:10;;;;;;;4.65;3.17;;;;;;;-143.98;100.00;68091.63;5048975;28;20143;-88
2021/05/09 01:15:51;;;;;;;4.15;2.60;;;;;;;-143.98;100.00;68091.63;5041202;28;20057;-88
2021/05/09 01:18:18;;;;;;;5.28;3.20;;;;;;;-143.98;100.00;68091.63;5041160;28;20533;-87
2021/05/09 01:20:53;;;;;;;9.07;2.87;;;;;;;-143.98;100.00;68091.63;5040474;28;20084;-87
2021/05/09 01:23:26;;;;;;;6.65;2.80;;;;;;;-143.98;100.00;68091.63;5023234;28;20468;-87
2021/05/09 01:25:55;;;;;;;5.63;3.22;;;;;;;-143.98;100.00;68091.63;5039165;28;20062;-87
2021/05/09 01:28:21;;;;;;;5.70;3.40;;;;;;;-143.98;100.00;68091.63;5055583;28;20060;-87
2021/05/09 01:30:50;;;;;;;4.18;2.90;;;;;;;-143.98;100.00;68091.63;5055062;28;20057;-87
2021/05/09 01:33:37;;;;;;;3.88;2.60;;;;;;;-143.98;100.00;68091.63;5040298;28;20065;-87
2021/05/09 01:36:04;;;;;;;6.63;3.40;;;;;;;-143.98;100.00;68091.63;5023672;28;20112;-87
2021/05/09 01:38:30;;;;;;;4.35;2.72;;;;;;;-143.98;100.00;68091.63;5039480;28;20140;-87
2021/05/09 01:41:00;;;;;;;5.75;3.15;;;;;;;-143.98;100.00;68091.63;5022041;28;20064;-87
2021/05/09 01:43:26;;;;;;;6.93;2.97;;;;;;;-143.98;100.00;68091.63;5038237;28;20362;-87
2021/05/09 01:45:52;;;;;;;5.18;2.33;;;;;;;-143.98;100.00;68091.63;5039684;28;20068;-87
2021/05/09 01:48:37;;;;;;;4.07;2.90;;;;;;;-143.98;100.00;68091.63;5023811;28;20057;-87
2021/05/09 01:51:04;;;;;;;2.92;2.45;;;;;;;-143.98;100.00;68091.63;5026345;28;20067;-88
2021/05/09 01:53:30;;;;;;;4.57;2.75;;;;;;;-143.98;100.00;68091.63;5031723;28;20044;-87
2021/05/09 01:56:00;;;;;;;6.07;2.30;;;;;;;-143.98;100.00;68091.63;5038814;28;20108;-87
2021/05/09 01:58:26;;;;;;;6.28;2.38;;;;;;;-143.98;100.00;68091.63;5051892;28;20052;-87
2021/05/09 02:00:52;;;;;;;4.50;2.60;;;;;;;-143.98;100.00;68091.63;5060607;28;20394;-88
2021/05/09 02:03:28;;;;;;;4.97;2.45;;;;;;;-143.98;100.00;68091.63;5055699;28;20092;-88
2021/05/09 02:05:57;;;;;;;13.93;3.22;;;;;;;-143.98;100.00;68091.63;5051222;28;20045;-88
2021/05/09 02:08:24;;;;;;;7.68;2.53;;;;;;;-143.98;100.00;68091.63;5054151;28;20055;-88
2021/05/09 02:10:50;;;;;;;4.13;2.95;;;;;;;-143.98;100.00;68091.63;5070343;28;20042;-88
2021/05/09 02:13:24;;;;;;;7.03;2.65;;;;;;;-143.98;100.00;68091.63;5054222;28;20057;-88
2021/05/09 02:15:56;;;;;;;3.22;2.42;;;;;;;-143.98;100.00;68091.63;5053649;28;20034;-87
2021/05/09 02:18:31;;;;;;;7.55;2.45;;;;;;;-143.98;100.00;68091.63;5047301;28;20068;-88
2021/05/09 02:21:00;;;;;;;5.15;2.65;;;;;;;-143.98;100.00;68091.63;5039420;28;20053;-88
2021/05/09 02:23:33;;;;;;;8.77;2.40;;;;;;;-143.98;100.00;68091.63;5043471;28;20130;-88
2021/05/09 02:25:59;;;;;;;8.82;2.67;;;;;;;-143.98;100.00;68091.63;5042690;28;20056;-88
2021/05/09 02:28:27;;;;;;;4.53;2.45;;;;;;;-143.98;100.00;68091.63;5053326;28;20036;-87
2021/05/09 02:30:55;;;;;;;3.47;2.42;;;;;;;-143.98;100.00;68091.63;5037660;28;20064;-88
2021/05/09 02:33:29;;;;;;;4.40;2.38;;;;;;;-143.98;100.00;68091.63;5059335;28;20057;-88
2021/05/09 02:35:57;;;;;;;5.35;2.95;;;;;;;-143.98;100.00;68091.63;5043877;28;20045;-88
2021/05/09 02:38:24;;;;;;;5.72;2.95;;;;;;;-143.98;100.00;68091.63;5045801;28;20092;-88
2021/05/09 02:41:10;;;;;;;4.30;3.00;;;;;;;-143.98;100.00;68091.63;5052210;28;20059;-88
2021/05/09 02:43:36;;;;;;;7.47;2.85;;;;;;;-143.98;100.00;68091.63;5068299;28;20068;-87
2021/05/09 02:46:03;;;;;;;5.72;2.85;;;;;;;-143.98;100.00;68091.63;5041284;28;20409;-88
2021/05/09 02:48:32;;;;;;;5.85;2.85;;;;;;;-143.98;100.00;68091.63;5039055;28;20096;-88
2021/05/09 02:51:19;;;;;;;4.90;2.88;;;;;;;-143.98;100.00;68091.63;5039331;28;20049;-88
2021/05/09 02:53:46;;;;;;;5.85;2.83;;;;;;;-143.98;100.00;68091.63;5055788;28;20053;-88
2021/05/09 02:56:12;;;;;;;4.55;2.60;;;;;;;-143.98;100.00;68091.63;5056403;28;20067;-88
2021/05/09 02:58:38;;;;;;;6.60;2.80;;;;;;;-143.98;100.00;68091.63;5055546;28;20057;-87
2021/05/09 03:01:08;;;;;;;5.47;2.78;;;;;;;-143.98;100.00;68091.63;5022402;28;20326;-88
2021/05/09 03:03:34;;;;;;;4.18;2.75;;;;;;;-143.98;100.00;68091.63;5054923;28;20049;-88
2021/05/09 03:06:01;;;;;;;4.70;2.97;;;;;;;-143.98;100.00;68091.63;5039345;28;20060;-87
2021/05/09 03:08:34;;;;;;;6.75;3.20;;;;;;;-143.98;100.00;68091.63;5039125;28;20071;-88
2021/05/09 03:11:03;;;;;;;6.82;2.97;;;;;;;-143.98;100.00;68091.63;5055264;28;20057;-88
2021/05/09 03:13:32;;;;;;;6.93;3.35;;;;;;;-143.98;100.00;68091.63;5055130;28;20325;-88
2021/05/09 03:16:02;;;;;;;5.47;2.90;;;;;;;-143.98;100.00;68091.63;5055608;28;20061;-88
2021/05/09 03:18:38;;;;;;;6.07;3.47;;;;;;;-143.98;100.00;68091.63;5054569;28;20085;-88
2021/05/09 03:21:04;;;;;;;6.28;2.90;;;;;;;-143.98;100.00;68091.63;5038963;28;20394;-88
2021/05/09 03:23:30;;;;;;;3.75;3.00;;;;;;;-143.98;100.00;68091.63;5037827;28;20264;-88
2021/05/09 03:26:02;;;;;;;4.55;2.78;;;;;;;-143.98;100.00;68091.63;5041325;28;20069;-85
2021/05/09 03:28:34;;;;;;;6.45;3.03;;;;;;;-143.98;100.00;68091.63;5042090;28;20109;-86
2021/05/09 03:31:01;;;;;;;10.55;3.08;;;;;;;-143.98;100.00;68091.63;5057343;28;20053;-87
2021/05/09 03:33:29;;;;;;;6.20;3.00;;;;;;;-143.98;100.00;68091.63;5051009;28;20038;-86
2021/05/09 03:35:59;;;;;;;5.47;3.35;;;;;;;-143.98;100.00;68091.63;5053681;28;20033;-87
2021/05/09 03:38:30;;;;;;;7.45;3.13;;;;;;;-143.98;100.00;68091.63;5048291;28;20097;-87
2021/05/09 03:41:41;;;;;;;6.35;3.38;;;;;;;-143.98;100.00;68091.63;5056966;28;20349;-87
2021/05/09 03:44:07;;;;;;;3.90;2.63;;;;;;;-143.98;100.00;68091.63;5005119;28;20050;-88
2021/05/09 03:46:34;;;;;;;4.15;2.53;;;;;;;-143.98;100.00;68091.63;5003706;28;20054;-88
2021/05/09 03:49:00;;;;;;;3.17;2.50;;;;;;;-143.98;100.00;68091.63;5004090;28;20338;-88
2021/05/09 03:51:27;;;;;;;4.97;3.13;;;;;;;-143.98;100.00;68091.63;4986572;28;20062;-88
2021/05/09 03:53:53;;;;;;;4.05;3.17;;;;;;;-143.98;100.00;68091.63;5002500;28;20046;-88
2021/05/09 03:56:19;;;;;;;6.45;2.95;;;;;;;-143.98;100.00;68091.63;4994146;28;20034;-88
2021/05/09 03:58:45;;;;;;;5.32;3.20;;;;;;;-143.98;100.00;68091.63;5017050;28;20062;-87
2021/05/09 04:01:15;;;;;;;6.90;3.47;;;;;;;-143.98;100.00;68091.63;5000960;28;20243;-87
2021/05/09 04:03:41;;;;;;;7.32;3.90;;;;;;;-143.98;100.00;68091.63;5017304;28;20034;-88
2021/05/09 04:06:11;;;;;;;5.47;3.25;;;;;;;-143.98;100.00;68091.63;5007077;28;20054;-87
2021/05/09 04:08:37;;;;;;;9.80;3.67;;;;;;;-143.98;100.00;68091.63;5003350;28;20086;-87
2021/05/09 04:11:03;;;;;;;8.38;3.47;;;;;;;-143.98;100.00;68091.63;5002365;28;20099;-87
2021/05/09 04:13:45;;;;;;;3.92;3.13;;;;;;;-143.98;100.00;68091.63;5003296;28;20085;-87
2021/05/09 04:16:12;;;;;;;4.68;2.83;;;;;;;-143.98;100.00;68091.63;5002192;28;20128;-87
2021/05/09 04:18:38;;;;;;;11.20;3.45;;;;;;;-143.98;100.00;68091.63;5002527;28;20058;-87
2021/05/09 04:21:07;;;;;;;6.90;3.20;;;;;;;-143.98;100.00;68091.63;5001882;28;20058;-86
2021/05/09 04:23:42;;;;;;;6.53;3.15;;;;;;;-143.98;100.00;68091.63;5003181;28;20064;-87
2021/05/09 04:26:09;;;;;;;7.10;3.50;;;;;;;-143.98;100.00;68091.63;5002192;28;20047;-87
2021/05/09 04:28:38;;;;;;;3.97;3.08;;;;;;;-143.98;100.00;68091.63;5002059;28;20157;-86
2021/05/09 04:31:06;;;;;;;6.18;3.42;;;;;;;-143.98;100.00;68091.63;5003276;28;20046;-85
2021/05/09 04:33:36;;;;;;;11.32;5.40;;;;;;;-143.98;100.00;68091.63;5002427;28;20469;-86
2021/05/09 04:36:04;;;;;;;11.00;5.18;;;;;;;-143.98;100.00;68091.63;5001928;28;20046;-87
2021/05/09 04:38:36;;;;;;;10.60;4.75;;;;;;;-143.98;100.00;68091.63;5002010;28;20058;-86
2021/05/09 04:41:02;;;;;;;4.65;3.25;;;;;;;-143.98;100.00;68091.63;5001368;28;20087;-86
2021/05/09 04:43:39;;;;;;;4.10;3.70;;;;;;;-143.98;100.00;68091.63;5036223;28;20149;-86
2021/05/09 04:46:06;;;;;;;6.28;2.88;;;;;;;-143.98;100.00;68091.63;5058404;28;20428;-87
2021/05/09 04:48:34;;;;;;;5.88;3.28;;;;;;;-143.98;100.00;68091.63;5042867;28;20080;-87
2021/05/09 04:51:12;;;;;;;8.02;4.72;;;;;;;-143.98;100.00;68091.63;5041803;28;20303;-88
2021/05/09 04:53:41;;;;;;;5.45;2.42;;;;;;;-143.98;100.00;68091.63;5040676;28;20056;-88
2021/05/09 04:56:08;;;;;;;7.70;3.10;;;;;;;-143.98;100.00;68091.63;5041103;28;20106;-88
2021/05/09 04:58:40;;;;;;;4.35;3.35;;;;;;;-143.98;100.00;68091.63;5040461;28;20064;-88
2021/05/09 05:01:09;;;;;;;5.50;3.22;;;;;;;-143.98;100.00;68091.63;5022884;28;20562;-88
2021/05/09 05:03:36;;;;;;;7.15;3.25;;;;;;;-143.98;100.00;68091.63;5038583;28;20077;-87
2021/05/09 05:06:06;;;;;;;5.13;3.53;;;;;;;-143.98;100.00;68091.63;5022120;28;20081;-88
2021/05/09 05:08:40;;;;;;;5.55;3.00;;;;;;;-143.98;100.00;68091.63;5037900;28;20073;-87
2021/05/09 05:11:06;;;;;;;3.63;2.70;;;;;;;-143.98;100.00;68091.63;5040102;28;20337;-85
2021/05/09 05:13:36;;;;;;;5.20;2.80;;;;;;;-143.98;100.00;68091.63;5042663;28;20053;-88
2021/05/09 05:16:07;;;;;;;6.45;2.90;;;;;;;-143.98;100.00;68091.63;5062112;28;20101;-88
2021/05/09 05:18:38;;;;;;;3.33;2.55;;;;;;;-143.98;100.00;68091.63;5038023;28;20079;-86
2021/05/09 05:21:05;;;;;;;3.50;2.30;;;;;;;-143.98;100.00;68091.63;5064342;28;20053;-86
2021/05/09 05:23:38;;;;;;;5.65;2.40;;;;;;;-143.98;100.00;68091.63;5044669;28;20040;-86
2021/05/09 05:26:07;;;;;;;5.05;2.92;;;;;;;-143.98;100.00;68091.63;5060765;28;20091;-86
2021/05/09 05:28:40;;;;;;;3.67;2.42;;;;;;;-143.98;100.00;68091.63;5055938;28;20037;-86
2021/05/09 05:31:09;;;;;;;4.13;2.08;;;;;;;-143.98;100.00;68091.63;5052591;28;20056;-86
2021/05/09 05:33:41;;;;;;;3.75;1.80;;;;;;;-143.98;100.00;68091.63;5065303;28;20057;-87
2021/05/09 05:36:10;;;;;;;4.40;2.03;;;;;;;-143.98;100.00;68091.63;5059922;28;20136;-86
2021/05/09 05:38:37;;;;;;;5.70;2.97;;;;;;;-143.98;100.00;68091.63;5058250;28;20100;-87
2021/05/09 05:41:06;;;;;;;6.28;2.25;;;;;;;-143.98;100.00;68091.63;5072716;28;20072;-86
2021/05/09 05:43:39;;;;;;;2.95;1.90;;;;;;;-143.98;100.00;68091.63;5060845;28;20154;-86
2021/05/09 05:46:10;;;;;;;5.15;2.08;;;;;;;-143.98;100.00;68091.63;5058903;28;20056;-87
2021/05/09 05:48:43;;;;;;;4.63;1.52;;;;;;;-143.98;100.00;68091.63;5058958;28;20103;-86
2021/05/09 05:51:16;;;;;;;5.15;1.70;;;;;;;-143.98;100.00;68091.63;5042055;28;20057;-87
2021/05/09 05:53:42;;;;;;;4.47;1.70;;;;;;;-143.98;100.00;68091.63;5042721;28;20056;-87
2021/05/09 05:56:09;;;;;;;3.17;2.00;;;;;;;-143.98;100.00;68091.63;5061422;28;20071;-87
2021/05/09 05:58:38;;;;;;;2.58;1.70;;;;;;;-143.98;100.00;68091.63;5044293;28;20049;-86
2021/05/09 06:01:09;;;;;;;2.35;1.40;;;;;;;-143.98;100.00;68091.63;5059558;28;20069;-86
2021/05/09 06:03:38;;;;;;;4.18;1.80;;;;;;;-143.98;100.00;68091.63;5058159;28;20064;-87
2021/05/09 06:06:11;;;;;;;4.40;2.13;;;;;;;-143.98;100.00;68091.63;5060909;28;20065;-87
2021/05/09 06:08:42;;;;;;;3.33;1.48;;;;;;;-143.98;100.00;68091.63;5060915;28;20076;-87
2021/05/09 06:11:08;;;;;;;3.03;1.67;;;;;;;-143.98;100.00;68091.63;5061459;28;20053;-87
2021/05/09 06:13:49;;;;;;;4.15;1.80;;;;;;;-143.98;100.00;68091.63;5043977;28;20305;-87
2021/05/09 06:16:16;;;;;;;6.07;1.75;;;;;;;-143.98;100.00;68091.63;5060279;28;20102;-87
2021/05/09 06:18:45;;;;;;;4.55;1.70;;;;;;;-143.98;100.00;68091.63;5050740;28;20053;-86
2021/05/09 06:21:11;;;;;;;2.20;1.60;;;;;;;-143.98;100.00;68091.63;5066994;28;20212;-87
2021/05/09 06:23:41;;;;;;;3.47;1.30;;;;;;;-143.98;100.00;68091.63;5046410;28;20095;-87
2021/05/09 06:26:10;;;;;;;3.25;1.40;;;;;;;-143.98;100.00;68091.63;5059150;28;20111;-87
2021/05/09 06:28:44;;;;;;;4.43;1.63;;;;;;;-143.98;100.00;68091.63;5056017;28;20099;-87
2021/05/09 06:31:17;;;;;;;7.07;1.40;;;;;;;-143.98;100.00;68091.63;5057914;28;20063;-87
2021/05/09 06:33:49;;;;;;;3.38;1.40;;;;;;;-143.98;100.00;68091.63;5059274;28;20053;-87
2021/05/09 06:36:21;;;;;;;3.00;1.30;;;;;;;-143.98;100.00;68091.63;5042083;28;20272;-87
2021/05/09 06:38:48;;;;;;;2.35;1.35;;;;;;;-143.98;100.00;68091.63;5054432;28;20348;-87
2021/05/09 06:41:21;;;;;;;4.50;1.67;;;;;;;-143.98;100.00;68091.63;5039023;28;20088;-87
2021/05/09 06:43:53;;;;;;;4.93;1.80;;;;;;;-143.98;100.00;68091.63;5070301;28;20127;-87
2021/05/09 06:46:20;;;;;;;6.03;1.67;;;;;;;-143.98;100.00;68091.63;5039129;28;20092;-87
2021/05/09 06:49:02;;;;;;;2.65;1.40;;;;;;;-143.98;100.00;68091.63;5021379;28;20109;-87
2021/05/09 06:51:28;;;;;;;3.90;1.70;;;;;;;-143.98;100.00;68091.63;5037066;28;20106;-87
2021/05/09 06:53:55;;;;;;;3.55;1.38;;;;;;;-143.98;100.00;68091.63;5037924;28;20060;-87
2021/05/09 06:56:27;;;;;;;4.05;1.55;;;;;;;-143.98;100.00;68091.63;5022268;28;20050;-87
2021/05/09 06:58:54;;;;;;;1.90;1.33;;;;;;;-143.98;100.00;68091.63;5057227;28;20069;-86
2021/05/09 07:01:20;;;;;;;2.17;1.38;;;;;;;-143.98;100.00;68091.63;5039799;28;20064;-86
2021/05/09 07:03:51;;;;;;;2.75;1.42;;;;;;;-143.98;100.00;68091.63;5040047;28;20052;-86
2021/05/09 07:06:20;;;;;;;5.22;1.52;;;;;;;-143.98;100.00;68091.63;5037963;28;20064;-86
2021/05/09 07:08:46;;;;;;;3.00;1.40;;;;;;;-143.98;100.00;68091.63;5037959;28;20057;-86
2021/05/09 07:11:13;;;;;;;2.40;1.15;;;;;;;-143.98;100.00;68091.63;5037875;28;20065;-87
2021/05/09 07:13:53;;;;;;;7.68;1.38;;;;;;;-143.98;100.00;68091.63;5039532;28;20053;-87
2021/05/09 07:16:20;;;;;;;2.97;1.58;;;;;;;-143.98;100.00;68091.63;5046579;28;20080;-87
2021/05/09 07:18:54;;;;;;;3.03;1.25;;;;;;;-143.98;100.00;68091.63;5029703;28;20113;-87
2021/05/09 07:21:27;;;;;;;2.40;1.40;;;;;;;-143.98;100.00;68091.63;5027557;28;20056;-87
2021/05/09 07:23:54;;;;;;;3.35;1.60;;;;;;;-143.98;100.00;68091.63;5027171;28;20080;-87
2021/05/09 07:26:20;;;;;;;5.78;1.70;;;;;;;-143.98;100.00;68091.63;5025812;28;20603;-86
2021/05/09 07:28:53;;;;;;;5.10;1.23;;;;;;;-143.98;100.00;68091.63;5025617;28;20055;-87
2021/05/09 07:31:19;;;;;;;3.80;1.60;;;;;;;-143.98;100.00;68091.63;5024888;28;20045;-87
2021/05/09 07:33:45;;;;;;;2.30;1.58;;;;;;;-143.98;100.00;68091.63;5026187;28;20056;-87
2021/05/09 07:36:30;;;;;;;5.75;1.20;;;;;;;-143.98;100.00;68091.63;5026269;28;20053;-87
2021/05/09 07:38:56;;;;;;;3.97;1.52;;;;;;;-143.98;100.00;68091.63;5026137;28;20049;-87
2021/05/09 07:41:23;;;;;;;4.13;2.15;;;;;;;-143.98;100.00;68091.63;5025706;28;20333;-87
2021/05/09 07:43:49;;;;;;;2.33;1.20;;;;;;;-143.98;100.00;68091.63;5024483;28;20072;-87
2021/05/09 07:46:19;;;;;;;5.63;1.77;;;;;;;-143.98;100.00;68091.63;5025484;28;20045;-87
2021/05/09 07:48:51;;;;;;;2.60;1.63;;;;;;;-143.98;100.00;68091.63;5049947;28;20049;-86
2021/05/09 07:51:17;;;;;;;2.30;1.40;;;;;;;-143.98;100.00;68091.63;5053319;28;20045;-87
2021/05/09 07:54:28;;;;;;;3.85;1.80;;;;;;;-143.98;100.00;68091.63;5035033;28;20067;-87
2021/05/09 07:56:54;;;;;;;;;;;;;;;-143.98;100.00;68091.63;5046768;28;20049;-85
2021/05/09 07:59:20;;;;;;;4.05;1.60;;;;;;;-143.98;100.00;68091.63;5060513;28;20008;-85
2021/05/09 08:01:50;;;;;;;2.55;1.50;;;;;;;-143.98;100.00;68091.63;5060557;28;20171;-87
2021/05/09 08:04:16;;;;;;;4.35;1.90;;;;;;;-143.98;100.00;68091.63;5045403;28;20057;-86
2021/05/09 08:06:43;;;;;;;5.43;1.70;;;;;;;-143.98;100.00;68091.63;5028166;28;20168;-86
2021/05/09 08:09:10;;;;;;;2.67;1.75;;;;;;;-143.98;100.00;68091.63;5043655;28;20045;-86
2021/05/09 08:11:36;;;;;;;3.20;1.50;;;;;;;-143.98;100.00;68091.63;5027880;28;20565;-86
2021/05/09 08:14:02;;;;;;;1.58;0.90;;;;;;;-143.98;100.00;68091.63;5045093;28;20056;-86
2021/05/09 08:16:32;;;;;;;4.60;1.15;;;;;;;-143.98;100.00;68091.63;5033330;28;20336;-86
2021/05/09 08:18:58;;;;;;;2.58;1.27;;;;;;;-143.98;100.00;68091.63;5065937;28;20387;-86
2021/05/09 08:21:24;;;;;;;3.00;1.38;;;;;;;-143.98;100.00;68091.63;5065160;28;20057;-86
2021/05/09 08:23:54;;;;;;;2.67;1.30;;;;;;;-143.98;100.00;68091.63;5065092;28;20080;-86
2021/05/09 08:26:21;;;;;;;3.72;1.25;;;;;;;-143.98;100.00;68091.63;5065142;28;20223;-85
2021/05/09 08:28:53;;;;;;;2.05;1.20;;;;;;;-143.98;100.00;68091.63;5047989;28;20059;-85
2021/05/09 08:31:29;;;;;;;3.40;1.30;;;;;;;-143.98;100.00;68091.63;5082504;28;20056;-85
2021/05/09 08:33:55;;;;;;;;;;;;;;;-143.98;100.00;68091.63;5073483;28;20037;-85
2021/05/09 08:36:25;;;;;;;3.67;1.27;;;;;;;-143.98;100.00;68091.63;5076309;28;19909;-84
2021/05/09 08:38:54;;;;;;;2.45;1.10;;;;;;;-143.98;100.00;68091.63;5066515;28;20060;-84
2021/05/09 08:41:25;;;;;;;2.47;1.40;;;;;;;-143.98;100.00;68091.63;5031399;28;20117;-85
2021/05/09 08:43:56;;;;;;;2.42;1.00;;;;;;;-143.98;100.00;68091.63;5032354;28;20049;-84
2021/05/09 08:46:50;;;;;;;4.82;1.50;;;;;;;-143.98;100.00;68091.63;5071936;28;20049;-84
2021/05/09 08:49:17;;;;;;;8.52;1.65;;;;;;;-143.98;100.00;68091.63;5052672;28;20049;-84
2021/05/09 08:51:47;;;;;;;2.53;1.05;;;;;;;-143.98;100.00;68091.63;5053940;28;20057;-84
2021/05/09 08:54:36;;;;;;;2.35;1.10;;;;;;;-143.98;100.00;68091.63;5052529;28;20041;-84
2021/05/09 09:01:38;;;;;;;;;;;;;;;;;;;;;
2021/05/09 09:05:20;;;;;;;5.13;1.17;;;;;;;-143.98;100.00;68091.63;5020132;28;20041;-85
2021/05/09 09:09:05;;;;;;;3.15;1.15;;;;;;;-143.98;100.00;68091.63;5063564;28;20045;-86
2021/05/09 09:12:08;;;;;;;3.13;1.55;;;;;;;-143.98;100.00;68091.63;5062004;28;20077;-83
2021/05/09 09:15:16;;;;;;;4.28;1.60;;;;;;;-143.98;100.00;68091.63;5046100;28;20051;-84
2021/05/09 09:17:52;;;;;;;3.50;1.33;;;;;;;-143.98;100.00;68091.63;5062682;28;20049;-85
2021/05/09 09:20:24;;;;;;;2.40;1.25;;;;;;;-143.98;100.00;68091.63;5047228;28;20077;-85
2021/05/09 09:22:59;;;;;;;3.42;1.20;;;;;;;-143.98;100.00;68091.63;5062640;28;20053;-85
2021/05/09 09:25:47;;;;;;;2.88;1.00;;;;;;;-143.98;100.00;68091.63;5046746;28;20064;-85
2021/05/09 09:29:02;;;;;;;2.45;1.23;;;;;;;-143.98;100.00;68091.63;5045869;28;20061;-85
2021/05/09 09:39:54;;;;;;;3.38;1.38;;;;;;;-143.98;100.00;68091.63;4997065;28;20082;-85
2021/05/09 09:43:42;;;;;;;;;;;;;;;;;;;;;
2021/05/09 09:47:10;;;;;;;1.30;0.80;;;;;;;-143.98;100.00;68091.63;5007412;28;20229;-85
2021/05/09 09:57:53;;;;;;;2.40;1.42;;;;;;;-143.98;100.00;68091.63;5013271;28;20334;-85
2021/05/09 10:05:18;;;;;;;;;;;;;;;;;;;;;
2021/05/09 10:13:05;;;;;;;2.83;1.20;;;;;;;-143.98;100.00;68091.63;4891215;29;20033;-86
2021/05/09 10:23:12;;;;;;;2.47;1.00;;;;;;;-143.98;100.00;68091.63;4917582;29;20669;-85
2021/05/09 10:26:16;;;;;;;2.50;0.98;;;;;;;-143.98;100.00;68091.63;4916750;29;20064;-85
2021/05/09 10:44:34;;;;;;;2.25;0.90;;;;;;;-143.98;100.00;68091.63;4802782;29;20116;-87
2021/05/09 10:54:27;;;;;;;5.13;0.90;;;;;;;-143.98;100.00;68091.63;4854509;29;20090;-86
2021/05/09 11:04:13;;;;;;;1.63;1.00;;;;;;;-143.98;100.00;68091.63;5002608;28;20092;-87
2021/05/09 11:06:52;;;;;;;2.08;0.98;;;;;;;-143.98;100.00;68091.63;5007424;28;20062;-87
2021/05/09 11:12:16;;;;;;;2.63;1.08;;;;;;;-143.98;100.00;68091.63;5008953;28;20060;-87
2021/05/09 11:15:48;;;;;;;5.18;1.10;;;;;;;-143.98;100.00;68091.63;4981750;28;20038;-86
2021/05/09 11:18:21;;;;;;;4.28;0.88;;;;;;;-143.98;100.00;68091.63;5014554;28;20062;-86
2021/05/09 11:21:20;;;;;;;2.83;0.63;;;;;;;-143.98;100.00;68091.63;4973273;28;20060;-87
2021/05/09 11:24:50;;;;;;;4.93;1.10;;;;;;;-143.98;100.00;68091.63;4990384;28;20042;-85
2021/05/09 11:27:43;;;;;;;2.80;0.82;;;;;;;-143.98;100.00;68091.63;4999800;28;20051;-86
2021/05/09 11:30:37;;;;;;;4.03;0.80;;;;;;;-143.98;100.00;68091.63;4986604;28;20093;-86
2021/05/09 11:33:13;;;;;;;2.65;1.00;;;;;;;-143.98;100.00;68091.63;4992759;28;20052;-86
2021/05/09 11:35:43;;;;;;;0.93;0.60;;;;;;;-143.98;100.00;68091.63;5003055;28;20567;-85
2021/05/09 11:38:15;;;;;;;1.17;0.70;;;;;;;-143.98;100.00;68091.63;5006158;28;20569;-85
2021/05/09 11:40:42;;;;;;;5.03;0.85;;;;;;;-143.98;100.00;68091.63;4990221;28;20046;-85
2021/05/09 11:43:22;;;;;;;0.90;0.57;;;;;;;-143.98;100.00;68091.63;5006427;28;20140;-87
2021/05/09 11:45:51;;;;;;;3.88;0.80;;;;;;;-143.98;100.00;68091.63;5018970;28;20050;-85
2021/05/09 11:48:36;;;;;;;1.52;0.50;;;;;;;-143.98;100.00;68091.63;4982369;28;20106;-85
2021/05/09 11:51:13;;;;;;;1.60;0.52;;;;;;;-143.98;100.00;68091.63;4985427;28;20050;-86
2021/05/09 11:53:42;;;;;;;1.95;0.70;;;;;;;-143.98;100.00;68091.63;4974324;28;20090;-85
2021/05/09 11:56:11;;;;;;;2.40;1.02;;;;;;;-143.98;100.00;68091.63;4979823;28;20110;-85
2021/05/09 11:59:00;;;;;;;3.10;1.00;;;;;;;-143.98;100.00;68091.63;4996245;28;20051;-85
2021/05/09 12:01:54;;;;;;;3.92;1.63;;;;;;;-143.98;100.00;68091.63;4988286;28;20054;-85
2021/05/09 12:04:20;;;;;;;3.67;0.60;;;;;;;-143.98;100.00;68091.63;5004061;28;20049;-86
2021/05/09 12:07:05;;;;;;;1.10;0.80;;;;;;;-143.98;100.00;68091.63;4995781;28;20058;-86
2021/05/09 12:09:38;;;;;;;3.38;1.30;;;;;;;-143.98;100.00;68091.63;4997366;28;20395;-87
2021/05/09 12:12:12;;;;;;;2.70;0.75;;;;;;;-143.98;100.00;68091.63;4987343;28;20461;-87
2021/05/09 12:14:55;;;;;;;1.27;0.80;;;;;;;-143.98;100.00;68091.63;5003069;28;20379;-87
2021/05/09 12:17:25;;;;;;;2.78;0.68;;;;;;;-143.98;100.00;68091.63;5003986;28;20134;-86
2021/05/09 12:20:01;;;;;;;2.63;0.70;;;;;;;-143.98;100.00;68091.63;5020121;28;20129;-86
2021/05/09 12:22:38;;;;;;;3.45;0.73;;;;;;;-143.98;100.00;68091.63;4986768;28;20050;-87
2021/05/09 12:25:05;;;;;;;3.78;0.80;;;;;;;-143.98;100.00;68091.63;4987253;28;20299;-87
2021/05/09 12:27:46;;;;;;;1.25;0.73;;;;;;;-143.98;100.00;68091.63;5002849;28;20122;-87
2021/05/09 12:30:21;;;;;;;1.15;0.70;;;;;;;-143.98;100.00;68091.63;4987491;28;20297;-86
2021/05/09 12:32:49;;;;;;;1.13;0.80;;;;;;;-143.98;100.00;68091.63;5003769;28;20054;-86
2021/05/09 12:35:19;;;;;;;2.03;0.95;;;;;;;-143.98;100.00;68091.63;5004417;28;20136;-86
2021/05/09 12:38:03;;;;;;;2.25;0.50;;;;;;;-143.98;100.00;68091.63;5003232;28;20126;-86
2021/05/09 12:40:43;;;;;;;1.90;0.70;;;;;;;-143.98;100.00;68091.63;5004583;28;20385;-86
2021/05/09 12:43:10;;;;;;;2.38;0.55;;;;;;;-143.98;100.00;68091.63;4986802;28;20107;-86
2021/05/09 12:45:52;;;;;;;1.17;0.40;;;;;;;-143.98;100.00;68091.63;5001861;28;20086;-87
2021/05/09 12:48:27;;;;;;;3.60;0.50;;;;;;;-143.98;100.00;68091.63;5002178;28;20073;-86
2021/05/09 12:51:06;;;;;;;4.37;0.67;;;;;;;-143.98;100.00;68091.63;4997072;28;20054;-85
2021/05/09 12:53:40;;;;;;;1.23;0.57;;;;;;;-143.98;100.00;68091.63;4987779;28;20049;-86